Celebrity Mercury — 9HJG9 — position and weather

sailwx.info

Track history (hours):
 
Tides and Currents Weather Stations Pressure Air Temp Water Temp Dewpoint Dewpoint Depression Visibility Wind Speed Wind Dir Waves Ship Positions

Celebrity Mercury

Last reported at 2019-Jun-16 20:00 UTC. Time now 2019-Jun-17 19:44 UTC.
Position N 36°48' E 015°24'.

Length 264 m; draft 8.5 m.

Type: Ship. MMSI: 249053000.

Wind from 350 at 14 knots

Barometer 1013.0 mb
Air temperature 25.0 ° C
Visibility: greater than 10.8 NM
Water temperature 28.0 ° C

Date/timePositionNaut miles runAvg speedWind from/ knotsBaromVisibWave heightAir tempDewpointWater temp
2019-Jun-16 20:00N 36°48' E 015°24'38 2.4 350 / 141013.010.8 25.0 28.0
2019-Jun-16 04:09N 37°26' E 015°23'1316.0
2019-Jun-16 03:20N 37°23' E 015°39'516.2
2019-Jun-16 03:00N 37°22' E 015°46'816.0
2019-Jun-16 02:30N 37°21' E 015°56'813.1
2019-Jun-16 01:55N 37°19' E 016°05'1114.2
2019-Jun-16 01:08N 37°17' E 016°19'214.3
2019-Jun-16 00:59N 37°16' E 016°22'7114.2
2019-Jun-15 20:00N 37°00' E 017°48'32513.0 280 / 131013.010.8 25.0 29.0
2019-Jun-14 19:00N 36°18' E 024°30'64 2.7 320 / 121013.010.8 25.0 28.0
2019-Jun-13 19:36N 37°16' E 023°55'114.3
2019-Jun-13 19:30N 37°17' E 023°54'916.9
2019-Jun-13 19:00N 37°24' E 023°48'2104.9 260 / 51014.010.8 25.0 28.0
2019-Jun-13 18:58N 37°24' E 023°50'714.3
2019-Jun-13 18:30N 37°30' E 023°47'714.1
2019-Jun-13 18:00N 37°36' E 023°43'713.5
2019-Jun-13 17:30N 37°43' E 023°40'713.6
2019-Jun-13 17:00N 37°49' E 023°37'713.0
2019-Jun-13 16:30N 37°55' E 023°36'1 2.3
2019-Jun-13 16:00N 37°56' E 023°37'0 0.0
2019-Jun-13 15:29N 37°56' E 023°37'0 0.0
2019-Jun-13 14:59N 37°56' E 023°37'0 0.0
2019-Jun-13 14:26N 37°56' E 023°37'0 0.0
2019-Jun-13 13:59N 37°56' E 023°37'0 0.0
2019-Jun-13 13:29N 37°56' E 023°37'0 0.0
2019-Jun-13 12:59N 37°56' E 023°37'0 0.0
2019-Jun-13 12:29N 37°56' E 023°37'0 0.0
2019-Jun-13 11:59N 37°56' E 023°37'0 0.0
2019-Jun-13 11:29N 37°56' E 023°37'0 0.0
2019-Jun-13 10:59N 37°56' E 023°37'0 0.0
2019-Jun-13 10:25N 37°56' E 023°37'11 6.9
2019-Jun-13 08:51N 37°46' E 023°42'11 9.7
2019-Jun-13 07:43N 37°56' E 023°37'0 0.0
2019-Jun-13 07:28N 37°56' E 023°37'0 0.0
2019-Jun-13 06:58N 37°56' E 023°37'0 0.0
2019-Jun-13 06:25N 37°56' E 023°37'0 0.0
2019-Jun-13 05:58N 37°56' E 023°37'0 0.0
2019-Jun-13 05:28N 37°56' E 023°37'0 0.0
2019-Jun-13 04:57N 37°56' E 023°37'0 0.0
2019-Jun-13 04:28N 37°56' E 023°37'0 0.0
2019-Jun-13 03:58N 37°56' E 023°37'0 0.0
2019-Jun-13 03:27N 37°56' E 023°37'0 0.0
2019-Jun-13 03:00N 37°56' E 023°37'0 0.0
2019-Jun-13 02:30N 37°56' E 023°37'0 0.0
2019-Jun-13 01:59N 37°56' E 023°37'0 0.0
2019-Jun-13 01:29N 37°56' E 023°37'0 0.9
2019-Jun-13 01:00N 37°56' E 023°37'713.1
2019-Jun-13 00:31N 37°50' E 023°40'714.6
2019-Jun-13 00:01N 37°43' E 023°44'713.7
2019-Jun-12 23:31N 37°37' E 023°47'713.1
2019-Jun-12 23:00N 37°31' E 023°49'612.5
2019-Jun-12 22:31N 37°25' E 023°49'918.3
2019-Jun-12 22:01N 37°16' E 023°54'2618.0
2019-Jun-12 20:35N 36°53' E 024°07'3018.9
2019-Jun-12 19:00N 36°24' E 024°18'103 4.3 250 / 201013.010.8 23.0 28.0
2019-Jun-11 19:00N 35°48' E 022°18'19916.6 350 / 61030.0 23.0 27.0
2019-Jun-11 07:00N 35°54' E 018°12'4916.2 170 / 61010.0 5.4 24.0 27.0
2019-Jun-11 04:00N 35°54' E 017°12'151 4.9 270 / 21010.010.8 24.219.827.0
2019-Jun-09 21:00N 36°12' E 014°06'16610.9 070 / 31018.010.8 24.0 25.0
2019-Jun-09 05:44N 38°30' E 012°10'513.4
2019-Jun-09 05:23N 38°34' E 012°13'813.6
2019-Jun-09 04:47N 38°41' E 012°19'1113.6
2019-Jun-09 04:00N 38°49' E 012°27'713.5
2019-Jun-09 03:30N 38°55' E 012°32'713.4
2019-Jun-09 02:57N 39°01' E 012°38'1513.5
2019-Jun-09 01:49N 39°13' E 012°49'5314.0
2019-Jun-08 22:00N 39°57' E 013°29'713.7
2019-Jun-08 21:28N 40°03' E 013°35'713.7
2019-Jun-08 20:55N 40°09' E 013°41'713.6
2019-Jun-08 20:24N 40°14' E 013°46'613.6
2019-Jun-08 19:57N 40°19' E 013°51'813.7
2019-Jun-08 19:20N 40°26' E 013°57'514.0
2019-Jun-08 19:00N 40°30' E 014°01'713.8
2019-Jun-08 18:30N 40°36' E 014°06'713.5
2019-Jun-08 18:00N 40°41' E 014°11'713.2
2019-Jun-08 17:30N 40°47' E 014°16'4 7.1
2019-Jun-08 17:00N 40°50' E 014°16'0 0.0
2019-Jun-08 16:11N 40°50' E 014°16'0 0.0
2019-Jun-08 15:56N 40°50' E 014°16'0 0.0
2019-Jun-08 15:28N 40°50' E 014°16'0 0.0
2019-Jun-08 14:58N 40°50' E 014°16'0 0.0
2019-Jun-08 14:29N 40°50' E 014°16'0 0.0
2019-Jun-08 13:57N 40°50' E 014°16'0 0.0
2019-Jun-08 13:27N 40°50' E 014°16'0 0.0
2019-Jun-08 12:57N 40°50' E 014°16'0 0.0
2019-Jun-08 12:29N 40°50' E 014°16'0 0.0
2019-Jun-08 11:58N 40°50' E 014°16'0 0.0
2019-Jun-08 11:30N 40°50' E 014°16'0 0.0
2019-Jun-08 10:59N 40°50' E 014°16'0 0.0
2019-Jun-08 10:29N 40°50' E 014°16'0 0.0
2019-Jun-08 09:57N 40°50' E 014°16'0 0.0
2019-Jun-08 09:25N 40°50' E 014°16'0 0.0
2019-Jun-08 08:58N 40°50' E 014°16'0 0.0
2019-Jun-08 08:30N 40°50' E 014°16'0 0.0
2019-Jun-08 08:00N 40°50' E 014°16'0 0.0
2019-Jun-08 07:30N 40°50' E 014°16'0 0.0
2019-Jun-08 06:59N 40°50' E 014°16'0 0.0
2019-Jun-08 06:30N 40°50' E 014°16'0 0.0
2019-Jun-08 06:00N 40°50' E 014°16'0 0.2
2019-Jun-08 05:30N 40°50' E 014°16'2 3.0
2019-Jun-08 05:00N 40°49' E 014°17'611.6
2019-Jun-08 04:30N 40°44' E 014°13'713.2
2019-Jun-08 04:00N 40°39' E 014°07'713.2
2019-Jun-08 03:30N 40°36' E 013°59'612.7
2019-Jun-08 03:00N 40°34' E 013°51'713.0
2019-Jun-08 02:30N 40°36' E 013°43'816.3
2019-Jun-08 02:00N 40°39' E 013°33'918.5
2019-Jun-08 01:30N 40°41' E 013°21'918.3
2019-Jun-08 01:00N 40°44' E 013°10'6315.6
2019-Jun-07 21:00N 41°24' E 012°06'17112.9 110 / 81019.010.8 23.0 23.0
2019-Jun-07 07:43N 40°51' E 008°23'13020.0
2019-Jun-07 01:14N 41°51' E 010°56'417.4
2019-Jun-07 01:00N 41°49' E 010°51'817.3
2019-Jun-07 00:30N 41°46' E 010°41'1217.3
2019-Jun-06 23:50N 41°42' E 010°26'617.2
2019-Jun-06 23:28N 41°39' E 010°18'817.1
2019-Jun-06 22:59N 41°36' E 010°08'  
Track history (hours):
 
Tides and Currents Weather Stations Pressure Air Temp Water Temp Dewpoint Dewpoint Depression Visibility Wind Speed Wind Dir Waves Ship Positions

Celebrity Mercury

Last reported at 2019-Jun-16 20:00 UTC. Time now 2019-Jun-17 19:44 UTC.
Position N 36°48' E 015°24'.

Length 264 m; draft 8.5 m.

Type: Ship. MMSI: 249053000.

Wind from 350 at 14 knots

Barometer 1013.0 mb
Air temperature 25.0 ° C
Visibility: greater than 10.8 NM
Water temperature 28.0 ° C

Date/timePositionNaut miles runAvg speedWind from/ knotsBaromVisibWave heightAir tempDewpointWater temp
2019-Jun-16 20:00N 36°48' E 015°24'38 2.4 350 / 141013.010.8 25.0 28.0
2019-Jun-16 04:09N 37°26' E 015°23'1316.0
2019-Jun-16 03:20N 37°23' E 015°39'516.2
2019-Jun-16 03:00N 37°22' E 015°46'816.0
2019-Jun-16 02:30N 37°21' E 015°56'813.1
2019-Jun-16 01:55N 37°19' E 016°05'1114.2
2019-Jun-16 01:08N 37°17' E 016°19'214.3
2019-Jun-16 00:59N 37°16' E 016°22'7114.2
2019-Jun-15 20:00N 37°00' E 017°48'32513.0 280 / 131013.010.8 25.0 29.0
2019-Jun-14 19:00N 36°18' E 024°30'64 2.7 320 / 121013.010.8 25.0 28.0
2019-Jun-13 19:36N 37°16' E 023°55'114.3
2019-Jun-13 19:30N 37°17' E 023°54'916.9
2019-Jun-13 19:00N 37°24' E 023°48'2104.9 260 / 51014.010.8 25.0 28.0
2019-Jun-13 18:58N 37°24' E 023°50'714.3
2019-Jun-13 18:30N 37°30' E 023°47'714.1
2019-Jun-13 18:00N 37°36' E 023°43'713.5
2019-Jun-13 17:30N 37°43' E 023°40'713.6
2019-Jun-13 17:00N 37°49' E 023°37'713.0
2019-Jun-13 16:30N 37°55' E 023°36'1 2.3
2019-Jun-13 16:00N 37°56' E 023°37'0 0.0
2019-Jun-13 15:29N 37°56' E 023°37'0 0.0
2019-Jun-13 14:59N 37°56' E 023°37'0 0.0
2019-Jun-13 14:26N 37°56' E 023°37'0 0.0
2019-Jun-13 13:59N 37°56' E 023°37'0 0.0
2019-Jun-13 13:29N 37°56' E 023°37'0 0.0
2019-Jun-13 12:59N 37°56' E 023°37'0 0.0
2019-Jun-13 12:29N 37°56' E 023°37'0 0.0
2019-Jun-13 11:59N 37°56' E 023°37'0 0.0
2019-Jun-13 11:29N 37°56' E 023°37'0 0.0
2019-Jun-13 10:59N 37°56' E 023°37'0 0.0
2019-Jun-13 10:25N 37°56' E 023°37'11 6.9
2019-Jun-13 08:51N 37°46' E 023°42'11 9.7
2019-Jun-13 07:43N 37°56' E 023°37'0 0.0
2019-Jun-13 07:28N 37°56' E 023°37'0 0.0
2019-Jun-13 06:58N 37°56' E 023°37'0 0.0
2019-Jun-13 06:25N 37°56' E 023°37'0 0.0
2019-Jun-13 05:58N 37°56' E 023°37'0 0.0
2019-Jun-13 05:28N 37°56' E 023°37'0 0.0
2019-Jun-13 04:57N 37°56' E 023°37'0 0.0
2019-Jun-13 04:28N 37°56' E 023°37'0 0.0
2019-Jun-13 03:58N 37°56' E 023°37'0 0.0
2019-Jun-13 03:27N 37°56' E 023°37'0 0.0
2019-Jun-13 03:00N 37°56' E 023°37'0 0.0
2019-Jun-13 02:30N 37°56' E 023°37'0 0.0
2019-Jun-13 01:59N 37°56' E 023°37'0 0.0
2019-Jun-13 01:29N 37°56' E 023°37'0 0.9
2019-Jun-13 01:00N 37°56' E 023°37'713.1
2019-Jun-13 00:31N 37°50' E 023°40'714.6
2019-Jun-13 00:01N 37°43' E 023°44'713.7
2019-Jun-12 23:31N 37°37' E 023°47'713.1
2019-Jun-12 23:00N 37°31' E 023°49'612.5
2019-Jun-12 22:31N 37°25' E 023°49'918.3
2019-Jun-12 22:01N 37°16' E 023°54'2618.0
2019-Jun-12 20:35N 36°53' E 024°07'3018.9
2019-Jun-12 19:00N 36°24' E 024°18'103 4.3 250 / 201013.010.8 23.0 28.0
2019-Jun-11 19:00N 35°48' E 022°18'19916.6 350 / 61030.0 23.0 27.0
2019-Jun-11 07:00N 35°54' E 018°12'4916.2 170 / 61010.0 5.4 24.0 27.0
2019-Jun-11 04:00N 35°54' E 017°12'151 4.9 270 / 21010.010.8 24.219.827.0
2019-Jun-09 21:00N 36°12' E 014°06'16610.9 070 / 31018.010.8 24.0 25.0
2019-Jun-09 05:44N 38°30' E 012°10'513.4
2019-Jun-09 05:23N 38°34' E 012°13'813.6
2019-Jun-09 04:47N 38°41' E 012°19'1113.6
2019-Jun-09 04:00N 38°49' E 012°27'713.5
2019-Jun-09 03:30N 38°55' E 012°32'713.4
2019-Jun-09 02:57N 39°01' E 012°38'1513.5
2019-Jun-09 01:49N 39°13' E 012°49'5314.0
2019-Jun-08 22:00N 39°57' E 013°29'713.7
2019-Jun-08 21:28N 40°03' E 013°35'713.7
2019-Jun-08 20:55N 40°09' E 013°41'713.6
2019-Jun-08 20:24N 40°14' E 013°46'613.6
2019-Jun-08 19:57N 40°19' E 013°51'813.7
2019-Jun-08 19:20N 40°26' E 013°57'514.0
2019-Jun-08 19:00N 40°30' E 014°01'713.8
2019-Jun-08 18:30N 40°36' E 014°06'713.5
2019-Jun-08 18:00N 40°41' E 014°11'713.2
2019-Jun-08 17:30N 40°47' E 014°16'4 7.1
2019-Jun-08 17:00N 40°50' E 014°16'0 0.0
2019-Jun-08 16:11N 40°50' E 014°16'0 0.0
2019-Jun-08 15:56N 40°50' E 014°16'0 0.0
2019-Jun-08 15:28N 40°50' E 014°16'0 0.0
2019-Jun-08 14:58N 40°50' E 014°16'0 0.0
2019-Jun-08 14:29N 40°50' E 014°16'0 0.0
2019-Jun-08 13:57N 40°50' E 014°16'0 0.0
2019-Jun-08 13:27N 40°50' E 014°16'0 0.0
2019-Jun-08 12:57N 40°50' E 014°16'0 0.0
2019-Jun-08 12:29N 40°50' E 014°16'0 0.0
2019-Jun-08 11:58N 40°50' E 014°16'0 0.0
2019-Jun-08 11:30N 40°50' E 014°16'0 0.0
2019-Jun-08 10:59N 40°50' E 014°16'0 0.0
2019-Jun-08 10:29N 40°50' E 014°16'0 0.0
2019-Jun-08 09:57N 40°50' E 014°16'0 0.0
2019-Jun-08 09:25N 40°50' E 014°16'0 0.0
2019-Jun-08 08:58N 40°50' E 014°16'0 0.0
2019-Jun-08 08:30N 40°50' E 014°16'0 0.0
2019-Jun-08 08:00N 40°50' E 014°16'0 0.0
2019-Jun-08 07:30N 40°50' E 014°16'0 0.0
2019-Jun-08 06:59N 40°50' E 014°16'0 0.0
2019-Jun-08 06:30N 40°50' E 014°16'0 0.0
2019-Jun-08 06:00N 40°50' E 014°16'0 0.2
2019-Jun-08 05:30N 40°50' E 014°16'2 3.0
2019-Jun-08 05:00N 40°49' E 014°17'611.6
2019-Jun-08 04:30N 40°44' E 014°13'713.2
2019-Jun-08 04:00N 40°39' E 014°07'713.2
2019-Jun-08 03:30N 40°36' E 013°59'612.7
2019-Jun-08 03:00N 40°34' E 013°51'713.0
2019-Jun-08 02:30N 40°36' E 013°43'816.3
2019-Jun-08 02:00N 40°39' E 013°33'918.5
2019-Jun-08 01:30N 40°41' E 013°21'918.3
2019-Jun-08 01:00N 40°44' E 013°10'6315.6
2019-Jun-07 21:00N 41°24' E 012°06'17112.9 110 / 81019.010.8 23.0 23.0
2019-Jun-07 07:43N 40°51' E 008°23'13020.0
2019-Jun-07 01:14N 41°51' E 010°56'417.4
2019-Jun-07 01:00N 41°49' E 010°51'817.3
2019-Jun-07 00:30N 41°46' E 010°41'1217.3
2019-Jun-06 23:50N 41°42' E 010°26'617.2
2019-Jun-06 23:28N 41°39' E 010°18'817.1
2019-Jun-06 22:59N 41°36' E 010°08'  

Dump ship's entire track history